Terminal Aerodrome Forecast
Issued by NWS

Home | Current Version | Previous Version | Graphics & Text | Print | Product List | Glossary On
Versions: 1 2 3 4 5 6 7 8 9 10 11 12 13 14 15 16 17
480
FTUS42 KMHX 250807 AAA
TAFPGV
TAF AMD
KPGV 250807Z 2508/2606 20010KT P6SM SCT015 BKN035
     FM251100 21010G15KT P6SM SCT020 BKN250
     FM251500 22015G25KT P6SM SCT050
     FM251800 23015G25KT P6SM BKN090
     FM252300 24010KT P6SM BKN090
     FM260200 24010KT P6SM SCT050
      AMD LTD TO CLD VIS AND WIND=

USA.gov is the U.S. government's official web portal to all federal, state and local government web resources and services.